createdAt,value
2022-10-03T00:00:14.429Z,9.99
2022-10-03T00:01:14.466Z,10.01
2022-10-03T00:02:14.512Z,10.02
2022-10-03T00:03:14.418Z,9.99
2022-10-03T00:04:14.369Z,10.01
2022-10-03T00:05:14.349Z,10.01
2022-10-03T00:06:14.340Z,9.99
2022-10-03T00:07:14.360Z,10.01
2022-10-03T00:08:14.549Z,10.01
2022-10-03T00:09:14.298Z,9.99
2022-10-03T00:10:14.289Z,9.99
2022-10-03T00:11:14.278Z,9.98
2022-10-03T00:12:14.288Z,9.99
2022-10-03T00:13:14.252Z,10.04
2022-10-03T00:14:14.251Z,10.01
2022-10-03T00:15:14.218Z,10.04
2022-10-03T00:16:14.251Z,9.99
2022-10-03T00:17:14.219Z,9.99
2022-10-03T00:18:14.193Z,9.98
2022-10-03T00:19:14.170Z,10.01
2022-10-03T00:20:14.158Z,10.02
2022-10-03T00:21:14.146Z,10.02
2022-10-03T00:22:14.179Z,10.01
2022-10-03T00:23:14.118Z,10.01
2022-10-03T00:24:14.194Z,10.01
2022-10-03T00:25:14.102Z,10.01
2022-10-03T00:26:14.168Z,10.01
2022-10-03T00:27:14.105Z,10.01
2022-10-03T00:28:14.083Z,10.01
2022-10-03T00:29:14.045Z,10.02
2022-10-03T00:30:14.047Z,10.01
2022-10-03T00:31:14.127Z,10.01
2022-10-03T00:32:14.037Z,9.99
2022-10-03T00:33:14.017Z,9.99
2022-10-03T00:34:14.020Z,9.96
2022-10-03T00:35:13.957Z,9.95
2022-10-03T00:36:14.192Z,9.92
2022-10-03T00:37:14.763Z,9.93
2022-10-03T00:38:13.926Z,9.93
2022-10-03T00:39:13.906Z,9.91
2022-10-03T00:40:13.902Z,9.89
2022-10-03T00:41:13.895Z,9.89
2022-10-03T00:42:13.896Z,9.91
2022-10-03T00:43:13.867Z,9.86
2022-10-03T00:44:15.594Z,9.85
2022-10-03T00:45:14.226Z,9.85
2022-10-03T00:46:14.254Z,9.85
2022-10-03T00:47:16.620Z,9.88
2022-10-03T00:48:13.821Z,9.88
2022-10-03T00:49:13.795Z,9.88
2022-10-03T00:50:13.767Z,9.86
2022-10-03T00:51:13.756Z,9.86
2022-10-03T00:52:14.465Z,9.88
2022-10-03T00:53:14.200Z,9.89
2022-10-03T00:54:13.919Z,9.91
2022-10-03T00:55:13.749Z,9.88
2022-10-03T00:56:14.062Z,9.89
2022-10-03T00:57:14.038Z,9.91
2022-10-03T00:58:13.666Z,9.91
2022-10-03T00:59:13.656Z,9.91
2022-10-03T01:00:14.083Z,9.93
2022-10-03T01:01:13.854Z,9.96
2022-10-03T01:02:14.705Z,9.98
2022-10-03T01:03:13.675Z,9.96
2022-10-03T01:04:14.692Z,10.01
2022-10-03T01:05:13.643Z,9.99
2022-10-03T01:06:13.596Z,10.02
2022-10-03T01:07:13.535Z,10.04
2022-10-03T01:08:13.536Z,10.01
2022-10-03T01:09:13.516Z,9.99
2022-10-03T01:10:13.511Z,10.02
2022-10-03T01:11:13.484Z,10.01
2022-10-03T01:12:13.511Z,9.98
2022-10-03T01:13:13.466Z,9.95
2022-10-03T01:14:13.463Z,9.92
2022-10-03T01:15:13.443Z,9.89
2022-10-03T01:16:13.527Z,9.89
2022-10-03T01:17:13.471Z,9.89
2022-10-03T01:18:13.415Z,9.85
2022-10-03T01:19:13.385Z,9.89
2022-10-03T01:20:13.385Z,9.88
2022-10-03T01:21:13.394Z,9.86
2022-10-03T01:22:13.362Z,9.91
2022-10-03T01:23:13.345Z,9.89
2022-10-03T01:24:13.325Z,9.93
2022-10-03T01:25:13.304Z,9.93
2022-10-03T01:26:13.406Z,9.96
2022-10-03T01:27:13.291Z,9.99
2022-10-03T01:28:13.312Z,9.98
2022-10-03T01:29:13.264Z,10.02
2022-10-03T01:30:13.262Z,9.98
2022-10-03T01:31:13.289Z,10.01
2022-10-03T01:32:13.526Z,10.01
2022-10-03T01:33:13.218Z,10.01
2022-10-03T01:34:13.224Z,10.02
2022-10-03T01:35:13.194Z,9.99
2022-10-03T01:36:13.221Z,10.01
2022-10-03T01:37:13.153Z,9.99
2022-10-03T01:38:13.141Z,10.01
2022-10-03T01:39:13.154Z,10.01
2022-10-03T01:40:14.097Z,9.99
2022-10-03T01:41:13.137Z,10.01
2022-10-03T01:42:13.095Z,10.02
2022-10-03T01:43:13.076Z,9.99
2022-10-03T01:44:13.063Z,10.02
2022-10-03T01:45:13.057Z,10.02
2022-10-03T01:46:13.152Z,10.04
2022-10-03T01:47:13.042Z,10.04
2022-10-03T01:48:13.023Z,10.02
2022-10-03T01:49:13.007Z,10.04
2022-10-03T01:50:12.987Z,10.02
2022-10-03T01:51:13.001Z,10.02
2022-10-03T01:52:12.970Z,10.04
2022-10-03T01:53:12.971Z,10.06
2022-10-03T01:54:12.943Z,10.07
2022-10-03T01:55:12.942Z,10.06
2022-10-03T01:56:12.943Z,10.06
2022-10-03T01:57:12.904Z,10.02
2022-10-03T01:58:12.886Z,10.06
2022-10-03T01:59:12.873Z,10.09
2022-10-03T02:00:12.852Z,10.04
2022-10-03T02:01:12.930Z,10.06
2022-10-03T02:02:12.894Z,10.06
2022-10-03T02:03:14.650Z,10.04
2022-10-03T02:04:14.805Z,10.02
2022-10-03T02:05:12.974Z,10.04
2022-10-03T02:06:13.279Z,10.04
2022-10-03T02:07:13.930Z,10.06
2022-10-03T02:08:12.904Z,10.02
2022-10-03T02:09:13.734Z,10.04
2022-10-03T02:10:12.834Z,10.02
2022-10-03T02:11:12.742Z,9.99
2022-10-03T02:12:12.703Z,10.02
2022-10-03T02:13:12.751Z,10.01
2022-10-03T02:14:12.674Z,10.07
2022-10-03T02:15:12.653Z,10.01
2022-10-03T02:16:12.715Z,10.01
2022-10-03T02:17:12.641Z,10.02
2022-10-03T02:18:12.623Z,10.01
2022-10-03T02:19:12.611Z,10.02
2022-10-03T02:20:12.606Z,10.04
2022-10-03T02:21:12.610Z,10.04
2022-10-03T02:22:12.574Z,10.02
2022-10-03T02:23:12.552Z,9.98
2022-10-03T02:24:12.551Z,10.01
2022-10-03T02:25:12.531Z,9.96
2022-10-03T02:26:12.759Z,9.96
2022-10-03T02:27:12.501Z,9.95
2022-10-03T02:28:12.544Z,9.95
2022-10-03T02:29:12.471Z,9.91
2022-10-03T02:30:12.472Z,9.91
2022-10-03T02:31:12.569Z,9.88
2022-10-03T02:32:12.444Z,9.88
2022-10-03T02:33:12.427Z,9.85
2022-10-03T02:34:12.429Z,9.88
2022-10-03T02:35:12.399Z,9.83
2022-10-03T02:36:12.421Z,9.78
2022-10-03T02:37:12.379Z,9.78
2022-10-03T02:38:12.364Z,9.75
2022-10-03T02:39:12.354Z,9.78
2022-10-03T02:40:12.341Z,9.77
2022-10-03T02:41:12.353Z,9.75
2022-10-03T02:42:12.319Z,9.75
2022-10-03T02:43:12.300Z,9.74
2022-10-03T02:44:12.340Z,9.77
2022-10-03T02:45:12.270Z,9.77
2022-10-03T02:46:12.387Z,9.77
2022-10-03T02:47:12.254Z,9.78
2022-10-03T02:48:30.784Z,9.75
2022-10-03T02:49:13.210Z,9.80
2022-10-03T02:50:12.208Z,9.81
2022-10-03T02:51:12.219Z,9.74
2022-10-03T02:52:12.182Z,9.78
2022-10-03T02:53:12.161Z,9.74
2022-10-03T02:54:12.152Z,9.74
2022-10-03T02:55:12.150Z,9.73
2022-10-03T02:56:12.170Z,9.74
2022-10-03T02:57:12.110Z,9.74
2022-10-03T02:58:12.110Z,9.75
2022-10-03T02:59:12.088Z,9.74
2022-10-03T03:00:12.093Z,9.75
2022-10-03T03:01:12.121Z,9.74
2022-10-03T03:02:12.134Z,9.75
2022-10-03T03:03:12.039Z,9.77
2022-10-03T03:04:12.030Z,9.78
2022-10-03T03:05:12.020Z,9.74
2022-10-03T03:06:12.029Z,9.74
2022-10-03T03:07:11.979Z,9.75
2022-10-03T03:08:11.970Z,9.73
2022-10-03T03:09:11.961Z,9.71
2022-10-03T03:10:11.950Z,9.73
2022-10-03T03:11:11.960Z,9.75
2022-10-03T03:12:13.370Z,9.71
2022-10-03T03:13:11.899Z,9.73
2022-10-03T03:14:11.889Z,9.71
2022-10-03T03:15:11.899Z,9.71
2022-10-03T03:16:11.942Z,9.70
2022-10-03T03:17:11.848Z,9.70
2022-10-03T03:18:11.848Z,9.68
2022-10-03T03:19:11.831Z,9.65
2022-10-03T03:20:11.829Z,9.63
2022-10-03T03:21:11.830Z,9.65
2022-10-03T03:22:11.799Z,9.67
2022-10-03T03:23:11.780Z,9.68
2022-10-03T03:24:11.759Z,9.70
2022-10-03T03:25:11.780Z,9.67
2022-10-03T03:26:11.781Z,9.67
2022-10-03T03:27:18.839Z,9.67
2022-10-03T03:28:12.758Z,9.68
2022-10-03T03:29:11.960Z,9.63
2022-10-03T03:30:11.945Z,9.65
2022-10-03T03:31:11.771Z,9.62
2022-10-03T03:32:11.658Z,9.63
2022-10-03T03:33:11.638Z,9.58
2022-10-03T03:34:11.628Z,9.63
2022-10-03T03:35:11.620Z,9.70
2022-10-03T03:36:11.637Z,9.67
2022-10-03T03:37:11.594Z,9.68
2022-10-03T03:38:11.590Z,9.65
2022-10-03T03:39:11.570Z,9.67
2022-10-03T03:40:12.309Z,9.67
2022-10-03T03:41:11.559Z,9.68
2022-10-03T03:42:11.527Z,9.67
2022-10-03T03:43:11.507Z,9.67
2022-10-03T03:44:11.507Z,9.68
2022-10-03T03:45:11.492Z,9.67
2022-10-03T03:46:11.597Z,9.70
2022-10-03T03:47:11.472Z,9.65
2022-10-03T03:48:11.457Z,9.68
2022-10-03T03:49:11.436Z,9.65
2022-10-03T03:50:11.426Z,9.60
2022-10-03T03:51:11.441Z,9.59
2022-10-03T03:52:11.394Z,9.59
2022-10-03T03:53:11.394Z,9.58
2022-10-03T03:54:11.367Z,9.56
2022-10-03T03:55:11.369Z,9.59
2022-10-03T03:56:11.647Z,9.56
2022-10-03T03:57:11.347Z,9.58
2022-10-03T03:58:11.508Z,9.56
2022-10-03T03:59:11.314Z,9.58
2022-10-03T04:00:11.286Z,9.53
2022-10-03T04:01:11.354Z,9.55
2022-10-03T04:02:11.316Z,9.55
2022-10-03T04:03:11.256Z,9.56
2022-10-03T04:04:11.235Z,9.53
2022-10-03T04:05:11.226Z,9.58
2022-10-03T04:06:11.244Z,9.56
2022-10-03T04:07:11.198Z,9.58
2022-10-03T04:08:11.203Z,9.53
2022-10-03T04:09:11.184Z,9.53
2022-10-03T04:10:11.165Z,9.56
2022-10-03T04:11:11.175Z,9.56
2022-10-03T04:12:11.143Z,9.56
2022-10-03T04:13:11.136Z,9.58
2022-10-03T04:14:11.107Z,9.62
2022-10-03T04:15:11.109Z,9.63
2022-10-03T04:16:11.129Z,9.62
2022-10-03T04:17:11.074Z,9.60
2022-10-03T04:18:11.058Z,9.59
2022-10-03T04:19:11.059Z,9.59
2022-10-03T04:20:11.054Z,9.62
2022-10-03T04:21:13.597Z,9.58
2022-10-03T04:22:11.013Z,9.59
2022-10-03T04:23:11.025Z,9.58
2022-10-03T04:24:10.993Z,9.59
2022-10-03T04:25:10.964Z,9.63
2022-10-03T04:26:10.984Z,9.60
2022-10-03T04:27:10.935Z,9.59
2022-10-03T04:28:11.004Z,9.58
2022-10-03T04:29:10.924Z,9.58
2022-10-03T04:30:10.908Z,9.58
2022-10-03T04:31:10.936Z,9.59
2022-10-03T04:32:10.919Z,9.62
2022-10-03T04:33:10.863Z,9.56
2022-10-03T04:34:10.854Z,9.56
2022-10-03T04:35:10.874Z,9.56
2022-10-03T04:36:10.863Z,9.56
2022-10-03T04:37:10.815Z,9.56
2022-10-03T04:38:10.804Z,9.56
2022-10-03T04:39:10.784Z,9.53
2022-10-03T04:40:10.774Z,9.55
2022-10-03T04:41:10.784Z,9.58
2022-10-03T04:42:10.743Z,9.56
2022-10-03T04:43:10.762Z,9.53
2022-10-03T04:44:10.732Z,9.56
2022-10-03T04:45:10.723Z,9.49
2022-10-03T04:46:10.764Z,9.49
2022-10-03T04:47:10.733Z,9.52
2022-10-03T04:48:10.663Z,9.50
2022-10-03T04:49:11.058Z,9.50
2022-10-03T04:50:10.636Z,9.50
2022-10-03T04:51:10.665Z,9.52
2022-10-03T04:52:10.621Z,9.50
2022-10-03T04:53:11.373Z,9.53
2022-10-03T04:54:10.613Z,9.50
2022-10-03T04:55:10.592Z,9.55
2022-10-03T04:56:10.534Z,9.55
2022-10-03T04:57:10.562Z,9.56
2022-10-03T04:58:10.514Z,9.56
2022-10-03T04:59:10.472Z,9.56
2022-10-03T05:00:10.462Z,9.59
2022-10-03T05:01:10.610Z,9.62
2022-10-03T05:02:10.535Z,9.60
2022-10-03T05:03:10.513Z,9.60
2022-10-03T05:04:10.439Z,9.63
2022-10-03T05:05:10.450Z,9.65
2022-10-03T05:06:10.425Z,9.67
2022-10-03T05:07:10.363Z,9.65
2022-10-03T05:08:10.351Z,9.67
2022-10-03T05:09:10.352Z,9.67
2022-10-03T05:10:13.393Z,9.68
2022-10-03T05:11:10.342Z,9.67
2022-10-03T05:12:10.302Z,9.71
2022-10-03T05:13:10.286Z,9.67
2022-10-03T05:14:10.272Z,9.67
2022-10-03T05:15:10.262Z,9.65
2022-10-03T05:16:10.341Z,9.70
2022-10-03T05:17:10.260Z,9.67
2022-10-03T05:18:10.223Z,9.70
2022-10-03T05:19:10.215Z,9.68
2022-10-03T05:20:10.202Z,9.68
2022-10-03T05:21:10.219Z,9.68
2022-10-03T05:22:10.171Z,9.71
2022-10-03T05:23:10.163Z,9.71
2022-10-03T05:24:10.142Z,9.73
2022-10-03T05:25:10.148Z,9.73
2022-10-03T05:26:42.935Z,9.71
2022-10-03T05:27:11.104Z,9.75
2022-10-03T05:28:10.126Z,9.73
2022-10-03T05:29:10.087Z,9.74
2022-10-03T05:30:10.098Z,9.74
2022-10-03T05:31:10.090Z,9.75
2022-10-03T05:32:10.125Z,9.73
2022-10-03T05:33:10.055Z,9.75
2022-10-03T05:34:10.097Z,9.74
2022-10-03T05:35:10.012Z,9.74
2022-10-03T05:36:10.014Z,9.75
2022-10-03T05:37:09.983Z,9.75
2022-10-03T05:38:09.990Z,9.77
2022-10-03T05:39:09.960Z,9.75
2022-10-03T05:40:09.940Z,9.80
2022-10-03T05:41:09.952Z,9.81
2022-10-03T05:42:22.623Z,9.83
2022-10-03T05:43:10.900Z,9.81
2022-10-03T05:44:09.886Z,9.83
2022-10-03T05:45:09.872Z,9.81
2022-10-03T05:46:09.952Z,9.80
2022-10-03T05:47:09.847Z,9.81
2022-10-03T05:48:09.830Z,9.80
2022-10-03T05:49:09.830Z,9.78
2022-10-03T05:50:13.363Z,9.81
2022-10-03T05:51:10.820Z,9.80
2022-10-03T05:52:09.781Z,9.80
2022-10-03T05:53:09.769Z,9.80
2022-10-03T05:54:09.750Z,9.78
2022-10-03T05:55:09.762Z,9.81
2022-10-03T05:56:09.773Z,9.85
2022-10-03T05:57:09.738Z,9.81
2022-10-03T05:58:09.710Z,9.83
2022-10-03T05:59:09.688Z,9.83
2022-10-03T06:00:09.672Z,9.88
2022-10-03T06:01:09.690Z,9.91
2022-10-03T06:02:09.751Z,9.89
2022-10-03T06:03:09.716Z,9.93
2022-10-03T06:04:09.620Z,9.93
2022-10-03T06:05:09.710Z,9.98
2022-10-03T06:06:09.623Z,9.96
2022-10-03T06:07:09.592Z,9.99
2022-10-03T06:08:09.569Z,9.96
2022-10-03T06:09:09.560Z,9.99
2022-10-03T06:10:09.542Z,9.99
2022-10-03T06:11:09.559Z,10.02
2022-10-03T06:12:09.520Z,9.99
2022-10-03T06:13:09.510Z,9.98
2022-10-03T06:14:09.506Z,10.01
2022-10-03T06:15:09.488Z,10.02
2022-10-03T06:16:09.533Z,10.02
2022-10-03T06:17:09.460Z,10.02
2022-10-03T06:18:09.438Z,10.02
2022-10-03T06:19:09.438Z,10.06
2022-10-03T06:20:09.410Z,10.09
2022-10-03T06:21:09.828Z,10.09
2022-10-03T06:22:09.395Z,10.07
2022-10-03T06:23:09.378Z,10.13
2022-10-03T06:24:09.371Z,10.10
2022-10-03T06:25:09.358Z,10.09
2022-10-03T06:26:09.359Z,10.11
2022-10-03T06:27:09.329Z,10.13
2022-10-03T06:28:09.370Z,10.14
2022-10-03T06:29:09.308Z,10.16
2022-10-03T06:30:09.296Z,10.18
2022-10-03T06:31:09.377Z,10.20
2022-10-03T06:32:09.260Z,10.28
2022-10-03T06:33:09.250Z,10.28
2022-10-03T06:34:09.228Z,10.31
2022-10-03T06:35:09.236Z,10.35
2022-10-03T06:36:09.238Z,10.42
2022-10-03T06:37:09.195Z,10.44
2022-10-03T06:38:09.178Z,10.44
2022-10-03T06:39:09.172Z,10.43
2022-10-03T06:40:10.117Z,10.46
2022-10-03T06:41:09.175Z,10.47
2022-10-03T06:42:09.142Z,10.51
2022-10-03T06:43:09.119Z,10.51
2022-10-03T06:44:09.118Z,10.51
2022-10-03T06:45:09.090Z,10.55
2022-10-03T06:46:09.199Z,10.54
2022-10-03T06:47:09.077Z,10.58
2022-10-03T06:48:09.049Z,10.57
2022-10-03T06:49:09.037Z,10.55
2022-10-03T06:50:09.018Z,10.52
2022-10-03T06:51:09.064Z,10.52
2022-10-03T06:52:09.005Z,10.54
2022-10-03T06:53:08.989Z,10.49
2022-10-03T06:54:08.967Z,10.52
2022-10-03T06:55:08.958Z,10.54
2022-10-03T06:56:08.969Z,10.55
2022-10-03T06:57:08.946Z,10.58
2022-10-03T06:58:08.919Z,10.62
2022-10-03T06:59:08.907Z,10.68
2022-10-03T07:00:08.887Z,10.73
2022-10-03T07:01:08.984Z,10.78
2022-10-03T07:02:08.924Z,10.80
2022-10-03T07:03:08.857Z,10.81
2022-10-03T07:04:08.855Z,10.87
2022-10-03T07:05:08.838Z,10.88
2022-10-03T07:06:08.840Z,10.87
2022-10-03T07:07:08.844Z,10.87
2022-10-03T07:08:08.787Z,10.90
2022-10-03T07:09:08.781Z,10.91
2022-10-03T07:10:08.766Z,10.93
2022-10-03T07:11:08.789Z,10.95
2022-10-03T07:12:14.042Z,10.99
2022-10-03T07:13:09.729Z,11.01
2022-10-03T07:14:08.706Z,11.01
2022-10-03T07:15:08.711Z,11.02
2022-10-03T07:16:25.930Z,11.08
2022-10-03T07:17:09.727Z,11.16
2022-10-03T07:18:08.726Z,11.19
2022-10-03T07:19:08.646Z,11.24
2022-10-03T07:20:08.660Z,11.28
2022-10-03T07:21:09.977Z,11.33
2022-10-03T07:22:08.608Z,11.33
2022-10-03T07:23:08.597Z,11.31
2022-10-03T07:24:08.576Z,11.36
2022-10-03T07:25:08.588Z,11.36
2022-10-03T07:26:08.604Z,11.42
2022-10-03T07:27:08.549Z,11.45
2022-10-03T07:28:08.587Z,11.49
2022-10-03T07:29:08.527Z,11.49
2022-10-03T07:30:08.496Z,11.56
2022-10-03T07:31:08.578Z,11.62
2022-10-03T07:32:08.477Z,11.63
2022-10-03T07:33:08.466Z,11.64
2022-10-03T07:34:08.463Z,11.69
2022-10-03T07:35:08.445Z,11.75
2022-10-03T07:36:08.447Z,11.81
2022-10-03T07:37:08.675Z,11.81
2022-10-03T07:38:08.452Z,11.81
2022-10-03T07:39:08.396Z,11.78
2022-10-03T07:40:08.369Z,11.81
2022-10-03T07:41:08.484Z,11.84
2022-10-03T07:42:08.396Z,11.81
2022-10-03T07:43:08.458Z,11.75
2022-10-03T07:44:08.323Z,11.70
2022-10-03T07:45:08.315Z,11.63
2022-10-03T07:46:08.464Z,11.64
2022-10-03T07:47:08.346Z,11.63
2022-10-03T07:48:08.265Z,11.64
2022-10-03T07:49:08.263Z,11.62
2022-10-03T07:50:09.253Z,11.62
2022-10-03T07:51:08.263Z,11.59
2022-10-03T07:52:08.240Z,11.57
2022-10-03T07:53:08.207Z,11.57
2022-10-03T07:54:09.126Z,11.54
2022-10-03T07:55:08.188Z,11.54
2022-10-03T07:56:09.661Z,11.57
2022-10-03T07:57:08.154Z,11.57
2022-10-03T07:58:08.175Z,11.51
2022-10-03T07:59:08.135Z,11.53
2022-10-03T08:00:08.127Z,11.51
2022-10-03T08:01:08.133Z,11.53
2022-10-03T08:02:08.174Z,11.57
2022-10-03T08:03:08.217Z,11.60
2022-10-03T08:04:08.944Z,11.64
2022-10-03T08:05:08.056Z,11.67
2022-10-03T08:06:08.058Z,11.69
2022-10-03T08:07:08.027Z,11.74
2022-10-03T08:08:08.008Z,11.77
2022-10-03T08:09:08.002Z,11.75
2022-10-03T08:10:07.976Z,11.81
2022-10-03T08:11:08.025Z,11.87
2022-10-03T08:12:07.956Z,11.87
2022-10-03T08:13:07.972Z,11.84
2022-10-03T08:14:07.925Z,11.82
2022-10-03T08:15:07.986Z,11.85
2022-10-03T08:16:07.986Z,11.88
2022-10-03T08:17:07.932Z,11.84
2022-10-03T08:18:07.875Z,11.84
2022-10-03T08:19:10.623Z,11.82
2022-10-03T08:20:07.851Z,11.85
2022-10-03T08:21:07.914Z,11.90
2022-10-03T08:22:07.827Z,11.87
2022-10-03T08:23:07.807Z,11.94
2022-10-03T08:24:07.807Z,11.96
2022-10-03T08:25:07.795Z,11.96
2022-10-03T08:26:07.804Z,12.00
2022-10-03T08:27:07.767Z,12.00
2022-10-03T08:28:07.769Z,12.00
2022-10-03T08:29:07.746Z,12.00
2022-10-03T08:30:07.733Z,12.03
2022-10-03T08:31:07.777Z,12.04
2022-10-03T08:32:07.696Z,12.03
2022-10-03T08:33:07.686Z,12.03
2022-10-03T08:34:07.670Z,12.05
2022-10-03T08:35:07.665Z,12.07
2022-10-03T08:36:07.676Z,12.16
2022-10-03T08:37:07.637Z,12.19
2022-10-03T08:38:07.616Z,12.25
2022-10-03T08:39:07.759Z,12.36
2022-10-03T08:40:07.597Z,12.40
2022-10-03T08:41:07.611Z,12.48
2022-10-03T08:42:07.564Z,12.58
2022-10-03T08:43:07.555Z,12.61
2022-10-03T08:44:07.572Z,12.59
2022-10-03T08:45:07.556Z,12.62
2022-10-03T08:46:07.620Z,12.74
2022-10-03T08:47:07.492Z,12.81
2022-10-03T08:48:07.601Z,12.87
2022-10-03T08:49:07.464Z,12.85
2022-10-03T08:50:07.484Z,12.89
2022-10-03T08:51:07.465Z,12.89
2022-10-03T08:52:07.435Z,12.85
2022-10-03T08:53:07.414Z,12.76
2022-10-03T08:54:07.547Z,12.69
2022-10-03T08:55:07.387Z,12.69
2022-10-03T08:56:07.415Z,12.73
2022-10-03T08:57:08.237Z,12.85
2022-10-03T08:58:07.365Z,12.91
2022-10-03T08:59:07.335Z,13.03
2022-10-03T09:00:07.434Z,13.09
2022-10-03T09:01:07.367Z,13.14
2022-10-03T09:02:07.405Z,13.17
2022-10-03T09:03:32.579Z,13.17
2022-10-03T09:04:08.412Z,13.22
2022-10-03T09:05:07.262Z,13.29
2022-10-03T09:06:07.275Z,13.38
2022-10-03T09:07:22.931Z,13.25
2022-10-03T09:08:08.386Z,13.16
2022-10-03T09:09:07.202Z,13.09
2022-10-03T09:10:07.194Z,13.04
2022-10-03T09:11:07.204Z,13.01
2022-10-03T09:12:07.196Z,12.95
2022-10-03T09:13:07.156Z,12.99
2022-10-03T09:14:07.145Z,12.99
2022-10-03T09:15:07.124Z,12.94
2022-10-03T09:16:07.217Z,12.96
2022-10-03T09:17:07.096Z,13.03
2022-10-03T09:18:07.093Z,13.04
2022-10-03T09:19:07.075Z,13.09
2022-10-03T09:20:07.067Z,13.07
2022-10-03T09:21:07.129Z,12.99
2022-10-03T09:22:07.048Z,12.94
2022-10-03T09:23:07.036Z,12.96
2022-10-03T09:24:07.016Z,13.03
2022-10-03T09:25:07.015Z,13.22
2022-10-03T09:26:07.028Z,13.19
2022-10-03T09:27:06.986Z,13.16
2022-10-03T09:28:07.126Z,13.25
2022-10-03T09:29:06.947Z,13.29
2022-10-03T09:30:07.010Z,13.32
2022-10-03T09:31:07.020Z,13.38
2022-10-03T09:32:06.905Z,13.41
2022-10-03T09:33:06.935Z,13.79
2022-10-03T09:34:07.673Z,13.96
2022-10-03T09:35:07.436Z,14.01
2022-10-03T09:36:06.994Z,14.05
2022-10-03T09:37:06.885Z,14.20
2022-10-03T09:38:06.825Z,14.12
2022-10-03T09:39:06.804Z,14.04
2022-10-03T09:40:06.807Z,13.94
2022-10-03T09:41:07.007Z,14.19
2022-10-03T09:42:06.775Z,14.41
2022-10-03T09:43:06.796Z,14.61
2022-10-03T09:44:06.765Z,14.61
2022-10-03T09:45:06.814Z,14.72
2022-10-03T09:46:06.802Z,14.74
2022-10-03T09:47:06.768Z,14.93
2022-10-03T09:48:06.697Z,15.01
2022-10-03T09:49:06.695Z,14.94
2022-10-03T09:50:06.707Z,14.79
2022-10-03T09:51:06.683Z,14.59
2022-10-03T09:52:08.954Z,14.44
2022-10-03T09:53:07.436Z,14.29
2022-10-03T09:54:06.625Z,14.23
2022-10-03T09:55:06.610Z,14.21
2022-10-03T09:56:06.893Z,14.13
2022-10-03T09:57:06.576Z,14.08
2022-10-03T09:58:06.572Z,14.01
2022-10-03T09:59:06.557Z,13.93
2022-10-03T10:00:06.557Z,13.88
2022-10-03T10:01:06.601Z,13.79
2022-10-03T10:02:06.516Z,13.83
2022-10-03T10:03:06.495Z,13.80
2022-10-03T10:04:06.630Z,13.79
2022-10-03T10:05:06.489Z,13.75
2022-10-03T10:06:06.508Z,13.72
2022-10-03T10:07:06.446Z,13.63
2022-10-03T10:08:06.505Z,13.76
2022-10-03T10:09:06.426Z,13.83
2022-10-03T10:10:06.411Z,13.98
2022-10-03T10:11:06.706Z,13.87
2022-10-03T10:12:06.403Z,13.66
2022-10-03T10:13:06.364Z,13.46
2022-10-03T10:14:07.896Z,13.35
2022-10-03T10:15:06.335Z,13.19
2022-10-03T10:16:06.531Z,13.25
2022-10-03T10:17:06.316Z,13.71
2022-10-03T10:18:06.329Z,13.80
2022-10-03T10:19:06.295Z,13.80
2022-10-03T10:20:06.276Z,14.17
2022-10-03T10:21:06.393Z,14.61
2022-10-03T10:22:06.267Z,15.09
2022-10-03T10:23:06.226Z,15.19
2022-10-03T10:24:06.226Z,15.04
2022-10-03T10:25:06.208Z,14.82
2022-10-03T10:26:06.231Z,14.79
2022-10-03T10:27:06.190Z,14.98
2022-10-03T10:28:06.203Z,14.87
2022-10-03T10:29:06.156Z,15.13
2022-10-03T10:30:06.148Z,15.41
2022-10-03T10:31:06.177Z,15.40
2022-10-03T10:32:06.117Z,15.74
2022-10-03T10:33:06.104Z,16.01
2022-10-03T10:34:06.094Z,15.95
2022-10-03T10:35:06.080Z,16.04
2022-10-03T10:36:06.135Z,16.14
2022-10-03T10:37:06.067Z,16.25
2022-10-03T10:38:06.037Z,16.25
2022-10-03T10:39:06.025Z,16.14
2022-10-03T10:40:06.018Z,15.98
2022-10-03T10:41:06.025Z,15.98
2022-10-03T10:42:05.997Z,16.06
2022-10-03T10:43:05.967Z,16.29
2022-10-03T10:44:05.959Z,16.47
2022-10-03T10:45:05.957Z,16.52
2022-10-03T10:46:05.965Z,16.70
2022-10-03T10:47:05.998Z,16.73
2022-10-03T10:48:05.909Z,16.42
2022-10-03T10:49:05.893Z,16.34
2022-10-03T10:50:05.888Z,16.36
2022-10-03T10:51:05.918Z,16.47
2022-10-03T10:52:06.714Z,16.66
2022-10-03T10:53:05.840Z,16.88
2022-10-03T10:54:05.827Z,16.92
2022-10-03T10:55:05.821Z,17.09
2022-10-03T10:56:05.840Z,17.24
2022-10-03T10:57:05.789Z,17.25
2022-10-03T10:58:05.778Z,17.39
2022-10-03T10:59:05.758Z,17.58
2022-10-03T11:00:05.796Z,17.60
2022-10-03T11:01:05.816Z,17.51
2022-10-03T11:02:05.729Z,17.28
2022-10-03T11:03:05.709Z,17.06
2022-10-03T11:04:05.739Z,16.85
2022-10-03T11:05:05.737Z,16.72
2022-10-03T11:06:05.708Z,16.62
2022-10-03T11:07:05.669Z,16.60
2022-10-03T11:08:05.650Z,16.59
2022-10-03T11:09:05.629Z,16.51
2022-10-03T11:10:05.746Z,16.48
2022-10-03T11:11:05.700Z,16.57
2022-10-03T11:12:05.619Z,16.62
2022-10-03T11:13:05.590Z,16.78
2022-10-03T11:14:05.571Z,16.85
2022-10-03T11:15:05.550Z,16.81
2022-10-03T11:16:05.640Z,16.80
2022-10-03T11:17:05.545Z,16.75
2022-10-03T11:18:05.626Z,16.82
2022-10-03T11:19:05.520Z,16.82
2022-10-03T11:20:05.551Z,16.84
2022-10-03T11:21:05.511Z,16.85
2022-10-03T11:22:05.492Z,16.91
2022-10-03T11:23:05.452Z,16.90
2022-10-03T11:24:05.481Z,16.87
2022-10-03T11:25:05.429Z,16.85
2022-10-03T11:26:05.638Z,16.78
2022-10-03T11:27:05.400Z,16.60
2022-10-03T11:28:05.456Z,16.50
2022-10-03T11:29:05.373Z,16.50
2022-10-03T11:30:05.363Z,16.52
2022-10-03T11:31:06.390Z,16.55
2022-10-03T11:32:05.351Z,16.60
2022-10-03T11:33:05.332Z,16.72
2022-10-03T11:34:05.351Z,16.72
2022-10-03T11:35:05.303Z,16.75
2022-10-03T11:36:05.391Z,16.73
2022-10-03T11:37:05.271Z,16.85
2022-10-03T11:38:05.281Z,16.90
2022-10-03T11:39:05.253Z,16.82
2022-10-03T11:40:05.232Z,16.87
2022-10-03T11:41:05.255Z,16.85
2022-10-03T11:42:05.212Z,16.90
2022-10-03T11:43:05.273Z,16.96
2022-10-03T11:44:05.187Z,16.98
2022-10-03T11:45:05.173Z,16.99
2022-10-03T11:46:05.297Z,16.95
2022-10-03T11:47:05.143Z,16.91
2022-10-03T11:48:05.133Z,17.00
2022-10-03T11:49:05.132Z,17.05
2022-10-03T11:50:05.112Z,17.20
2022-10-03T11:51:05.245Z,17.20
2022-10-03T11:52:05.244Z,17.10
2022-10-03T11:53:05.065Z,17.15
2022-10-03T11:54:26.718Z,17.25
2022-10-03T11:55:06.093Z,17.35
2022-10-03T11:56:05.143Z,17.39
2022-10-03T11:57:05.015Z,17.35
2022-10-03T11:58:05.005Z,17.32
2022-10-03T11:59:04.983Z,17.32
2022-10-03T12:00:04.985Z,17.25
2022-10-03T12:01:05.047Z,17.30
2022-10-03T12:02:05.048Z,17.27
2022-10-03T12:03:04.975Z,17.28
2022-10-03T12:04:04.934Z,17.00
2022-10-03T12:05:04.914Z,16.59
2022-10-03T12:06:04.934Z,16.41
2022-10-03T12:07:04.887Z,16.51
2022-10-03T12:08:04.885Z,16.45
2022-10-03T12:09:04.864Z,16.65
2022-10-03T12:10:04.862Z,16.45
2022-10-03T12:11:04.864Z,16.32
2022-10-03T12:12:04.825Z,16.50
2022-10-03T12:13:04.820Z,16.50
2022-10-03T12:14:10.055Z,16.62
2022-10-03T12:15:05.807Z,16.87
2022-10-03T12:16:04.853Z,16.99
2022-10-03T12:17:04.765Z,17.21
2022-10-03T12:18:04.760Z,17.33
2022-10-03T12:19:04.755Z,17.53
2022-10-03T12:20:04.737Z,17.51
2022-10-03T12:21:04.740Z,17.46
2022-10-03T12:22:04.701Z,17.47
2022-10-03T12:23:04.695Z,17.24
2022-10-03T12:24:04.680Z,17.02
2022-10-03T12:25:04.700Z,16.82
2022-10-03T12:26:04.676Z,16.69
2022-10-03T12:27:04.656Z,16.52
2022-10-03T12:28:04.653Z,16.27
2022-10-03T12:29:04.706Z,16.03
2022-10-03T12:30:04.649Z,15.74
2022-10-03T12:31:04.627Z,15.56
2022-10-03T12:32:04.695Z,15.34
2022-10-03T12:33:04.557Z,15.27
2022-10-03T12:34:04.559Z,15.25
2022-10-03T12:35:04.592Z,15.34
2022-10-03T12:36:04.550Z,15.48
2022-10-03T12:37:04.554Z,15.56
2022-10-03T12:38:04.487Z,15.67
2022-10-03T12:39:04.487Z,15.84
2022-10-03T12:40:04.569Z,15.95
2022-10-03T12:41:04.497Z,16.04
2022-10-03T12:42:04.444Z,16.10
2022-10-03T12:43:04.448Z,16.16
2022-10-03T12:44:04.429Z,16.25
2022-10-03T12:45:04.457Z,16.29
2022-10-03T12:46:04.491Z,16.41
2022-10-03T12:47:04.378Z,16.55
2022-10-03T12:48:04.466Z,16.77
2022-10-03T12:49:04.357Z,16.99
2022-10-03T12:50:04.362Z,17.30
2022-10-03T12:51:04.357Z,17.57
2022-10-03T12:52:04.310Z,17.60
2022-10-03T12:53:04.326Z,17.68
2022-10-03T12:54:04.288Z,17.71
2022-10-03T12:55:04.278Z,17.70
2022-10-03T12:56:05.267Z,17.57
2022-10-03T12:57:04.249Z,17.47
2022-10-03T12:58:04.240Z,17.40
2022-10-03T12:59:04.229Z,17.21
2022-10-03T13:00:04.238Z,17.05
2022-10-03T13:01:04.264Z,16.91
2022-10-03T13:02:04.248Z,16.73